M V Global Arrow — 3FBV7 — position and weather

sailwx.info

Track history (hours):
 
Tides and Currents Weather Stations Pressure Air Temp Water Temp Dewpoint Dewpoint Depression Visibility Wind Speed Wind Dir Waves Ship Positions

M V Global Arrow

Last reported at 2018-May-24 21:28 UTC. Time now 2018-May-24 21:43 UTC.
Position N 54°23' E 018°40'.

Length 153 m; draft 6.5 m.

Type: Ship. MMSI: 355420000.

Date/timePositionNaut miles runAvg speedWind from/ knotsBaromVisibWave heightAir tempDewpointWater temp
2018-May-24 21:28N 54°23' E 018°40'0 0.0
2018-May-24 20:58N 54°23' E 018°40'0 0.0
2018-May-24 20:28N 54°23' E 018°40'0 0.0
2018-May-24 19:58N 54°23' E 018°40'0 0.0
2018-May-24 19:28N 54°23' E 018°40'0 0.0
2018-May-24 18:58N 54°23' E 018°40'0 0.0
2018-May-24 18:28N 54°23' E 018°40'0 0.0
2018-May-24 17:58N 54°23' E 018°40'0 0.0
2018-May-24 17:25N 54°23' E 018°40'0 0.0
2018-May-24 16:58N 54°23' E 018°40'0 0.0
2018-May-24 16:28N 54°23' E 018°40'0 0.0
2018-May-24 15:58N 54°23' E 018°40'0 0.0
2018-May-24 15:28N 54°23' E 018°40'0 0.0
2018-May-24 14:58N 54°23' E 018°40'0 0.0
2018-May-24 14:25N 54°23' E 018°40'0 0.0
2018-May-24 13:58N 54°23' E 018°40'0 0.0
2018-May-24 13:28N 54°23' E 018°40'5 1.2
2018-May-24 09:00N 54°28' E 018°42'2 5.0
2018-May-24 08:30N 54°30' E 018°44'612.5
2018-May-24 08:00N 54°35' E 018°52'713.4
2018-May-24 07:30N 54°41' E 018°56'612.4
2018-May-24 07:00N 54°47' E 018°55'713.4
2018-May-24 06:30N 54°51' E 018°46'713.7
2018-May-24 06:00N 54°55' E 018°36'713.2
2018-May-24 05:30N 54°56' E 018°25'713.1
2018-May-24 05:00N 54°56' E 018°14'713.2
2018-May-24 04:31N 54°56' E 018°02'713.2
2018-May-24 04:00N 54°56' E 017°50'613.0
2018-May-24 03:30N 54°55' E 017°39'713.2
2018-May-24 03:00N 54°54' E 017°28'612.8
2018-May-24 02:30N 54°53' E 017°17'612.7
2018-May-24 02:00N 54°51' E 017°07'712.7
2018-May-24 01:29N 54°49' E 016°55'713.1
2018-May-24 00:56N 54°48' E 016°43'813.1
2018-May-24 00:21N 54°47' E 016°30'513.2
2018-May-23 23:59N 54°46' E 016°22'613.0
2018-May-23 23:30N 54°45' E 016°11'712.9
2018-May-23 22:58N 54°43' E 015°59'612.9
2018-May-23 22:30N 54°43' E 015°49'612.9
2018-May-23 22:00N 54°42' E 015°38'812.8
2018-May-23 21:25N 54°41' E 015°25'512.8
2018-May-23 21:00N 54°41' E 015°16'612.6
2018-May-23 20:30N 54°39' E 015°05'612.6
2018-May-23 20:00N 54°38' E 014°55'612.6
2018-May-23 19:31N 54°37' E 014°44'612.5
2018-May-23 19:01N 54°36' E 014°33'612.4
2018-May-23 18:31N 54°36' E 014°23'712.6
2018-May-23 17:56N 54°38' E 014°11'812.9
2018-May-23 17:20N 54°40' E 013°58'1112.9
2018-May-23 16:30N 54°43' E 013°40'813.0
2018-May-23 15:52N 54°44' E 013°26'613.2
2018-May-23 15:25N 54°45' E 013°15'713.3
2018-May-23 14:56N 54°45' E 013°04'916.0
2018-May-23 14:21N 54°44' E 012°48'1911.7
2018-May-23 12:45N 54°35' E 012°20'312.8
2018-May-23 12:30N 54°32' E 012°17'712.7
2018-May-23 11:59N 54°26' E 012°12'612.2
2018-May-23 11:30N 54°25' E 012°02'612.6
2018-May-23 11:00N 54°25' E 011°51'712.0
2018-May-23 10:26N 54°27' E 011°40'512.8
2018-May-23 10:01N 54°29' E 011°31'713.1
2018-May-23 09:31N 54°32' E 011°21'612.8
2018-May-23 09:01N 54°34' E 011°11'713.2
2018-May-23 08:31N 54°35' E 010°60'713.2
2018-May-23 08:01N 54°34' E 010°48'713.1
2018-May-23 07:31N 54°33' E 010°37'712.9
2018-May-23 07:00N 54°31' E 010°26'611.8
2018-May-23 06:29N 54°29' E 010°17'5 9.9
2018-May-23 06:01N 54°25' E 010°13'4 7.3
2018-May-23 05:31N 54°22' E 010°09'0 0.4
2018-May-23 05:01N 54°22' E 010°08'1 1.5
2018-May-23 04:30N 54°22' E 010°07'3 6.5
2018-May-23 04:00N 54°22' E 010°02'4 7.0
2018-May-23 03:30N 54°20' E 009°56'4 7.6
2018-May-23 03:01N 54°22' E 009°50'4 8.1
2018-May-23 02:30N 54°20' E 009°44'3 6.8
2018-May-23 02:00N 54°17' E 009°40'3 5.3
2018-May-23 01:30N 54°15' E 009°37'1 3.0
2018-May-23 01:01N 54°14' E 009°36'3 6.2
2018-May-23 00:30N 54°12' E 009°32'4 7.2
2018-May-23 00:00N 54°10' E 009°27'4 8.1
2018-May-22 23:31N 54°08' E 009°21'4 8.2
2018-May-22 23:00N 54°04' E 009°19'4 7.6
2018-May-22 22:31N 54°01' E 009°18'4 7.9
2018-May-22 22:01N 53°57' E 009°14'4 7.4
2018-May-22 21:30N 53°54' E 009°10'1 2.5
2018-May-22 21:00N 53°54' E 009°09'0 0.0
2018-May-22 20:31N 53°54' E 009°09'1 2.8
2018-May-22 20:00N 53°53' E 009°06'1 1.2
2018-May-22 19:29N 53°53' E 009°05'0 0.2
2018-May-22 18:56N 53°53' E 009°06'0 0.1
2018-May-22 18:30N 53°53' E 009°06'0 0.0
2018-May-22 17:59N 53°53' E 009°06'0 0.0
2018-May-22 17:29N 53°53' E 009°06'0 0.0
2018-May-22 16:56N 53°53' E 009°06'0 0.0
2018-May-22 16:29N 53°53' E 009°06'0 0.0
2018-May-22 15:56N 53°53' E 009°06'0 0.0
2018-May-22 15:21N 53°53' E 009°06'0 0.1
2018-May-22 15:00N 53°53' E 009°06'3 5.7
2018-May-22 14:31N 53°51' E 009°01'612.8
2018-May-22 14:00N 53°50' E 008°51'510.4
2018-May-22 13:30N 53°53' E 008°43'611.7
2018-May-22 13:00N 53°57' E 008°37'613.1
2018-May-22 12:31N 53°59' E 008°26'713.2
2018-May-22 11:59N 53°60' E 008°15'611.0
2018-May-22 11:28N 53°59' E 008°05'612.9
2018-May-22 11:00N 53°58' E 007°55'612.6
2018-May-22 10:30N 53°56' E 007°44'612.3
2018-May-22 10:00N 53°55' E 007°34'612.0
2018-May-22 09:30N 53°54' E 007°24'612.0
2018-May-22 09:00N 53°52' E 007°14'611.8
2018-May-22 08:30N 53°51' E 007°05'611.7
2018-May-22 08:00N 53°50' E 006°55'611.7
2018-May-22 07:30N 53°48' E 006°45'611.8
2018-May-22 07:00N 53°47' E 006°36'611.8
2018-May-22 06:30N 53°45' E 006°26'611.9
2018-May-22 06:00N 53°43' E 006°16'612.1
2018-May-22 05:30N 53°41' E 006°07'612.2
2018-May-22 05:00N 53°39' E 005°57'612.2
2018-May-22 04:30N 53°38' E 005°47'612.3
2018-May-22 04:00N 53°36' E 005°37'612.4
2018-May-22 03:30N 53°34' E 005°28'612.4
2018-May-22 03:00N 53°32' E 005°18'612.6
2018-May-22 02:30N 53°30' E 005°08'612.7
2018-May-22 02:00N 53°27' E 004°58'713.2
2018-May-22 01:30N 53°25' E 004°47'612.7
2018-May-22 01:00N 53°20' E 004°41'713.6
2018-May-22 00:30N 53°14' E 004°35'713.8
2018-May-22 00:00N 53°08' E 004°30'713.9
2018-May-21 23:31N 53°02' E 004°24'713.4
2018-May-21 23:01N 52°56' E 004°19'713.4
2018-May-21 22:31N 52°50' E 004°13'714.1
2018-May-21 22:00N 52°45' E 004°06'713.7
2018-May-21 21:31N 52°40' E 003°59'713.7
2018-May-21 21:00N 52°34' E 003°52'713.7
2018-May-21 20:30N 52°29' E 003°44'713.9
2018-May-21 20:00N 52°25' E 003°35'713.9
2018-May-21 19:30N 52°20' E 003°27'713.9
2018-May-21 19:00N 52°15' E 003°19'714.0
2018-May-21 18:29N 52°10' E 003°10'714.1
2018-May-21 18:00N 52°05' E 003°03'713.9
2018-May-21 17:30N 51°60' E 002°55'813.8
2018-May-21 16:56N 51°53' E 002°48'613.5
2018-May-21 16:28N 51°48' E 002°42'613.3
2018-May-21 16:00N 51°44' E 002°35'713.0
2018-May-21 15:30N 51°39' E 002°28'612.8
2018-May-21 15:00N 51°34' E 002°22'612.2
2018-May-21 14:30N 51°29' E 002°16'611.6
2018-May-21 14:00N 51°25' E 002°10'611.3
2018-May-21 13:30N 51°19' E 002°08'510.9
2018-May-21 13:00N 51°14' E 002°05'510.6
2018-May-21 12:30N 51°11' E 001°57'510.4
2018-May-21 12:00N 51°08' E 001°50'510.0
2018-May-21 11:30N 51°05' E 001°44'5 9.7
2018-May-21 11:00N 51°02' E 001°39'5 9.8
2018-May-21 10:30N 50°58' E 001°34'510.2
2018-May-21 10:00N 50°54' E 001°28'510.9
2018-May-21 09:30N 50°49' E 001°24'611.4
2018-May-21 09:00N 50°44' E 001°21'611.4
2018-May-21 08:30N 50°39' E 001°17'612.0
2018-May-21 08:00N 50°35' E 001°10'612.1
2018-May-21 07:30N 50°31' E 001°02'1811.8
2018-May-21 05:58N 50°25' E 000°35'611.6
2018-May-21 05:27N 50°23' E 000°26'511.6
2018-May-21 05:00N 50°22' E 000°18'611.7
2018-May-21 04:30N 50°21' E 000°09'612.0
2018-May-21 04:00N 50°19' E 000°00'612.2
2018-May-21 03:30N 50°17' W 000°09'612.6
2018-May-21 03:00N 50°16' W 000°18'713.1
2018-May-21 02:30N 50°14' W 000°28'713.7
2018-May-21 02:00N 50°12' W 000°39'714.5
2018-May-21 01:30N 50°11' W 000°49'815.2
2018-May-21 01:00N 50°09' W 001°01'815.7
2018-May-21 00:31N 50°07' W 001°13'815.8
2018-May-21 00:00N 50°04' W 001°24'816.2
2018-May-20 23:30N 50°02' W 001°37'816.3
2018-May-20 23:00N 49°60' W 001°49'816.2
2018-May-20 22:30N 49°58' W 002°01'815.4
2018-May-20 22:00N 49°56' W 002°13'714.4
2018-May-20 21:30N 49°55' W 002°24'713.9
2018-May-20 21:00N 49°53' W 002°34'713.4
2018-May-20 20:30N 49°52' W 002°44'713.0
2018-May-20 20:00N 49°51' W 002°54'612.7
2018-May-20 19:30N 49°51' W 003°04'612.5
2018-May-20 19:00N 49°51' W 003°14'612.1
2018-May-20 18:30N 49°51' W 003°23'611.8
2018-May-20 18:00N 49°51' W 003°33'611.6
2018-May-20 17:29N 49°52' W 003°42'611.6
2018-May-20 17:00N 49°52' W 003°51'811.6
2018-May-20 16:21N 49°52' W 004°02'411.7
2018-May-20 16:00N 49°52' W 004°08'611.8
2018-May-20 15:30N 49°52' W 004°18'612.0
2018-May-20 15:00N 49°52' W 004°27'612.2
2018-May-20 14:30N 49°53' W 004°36'712.3
2018-May-20 13:57N 49°53' W 004°47'612.4
2018-May-20 13:28N 49°53' W 004°56'612.3
2018-May-20 13:00N 49°53' W 005°05'612.4
2018-May-20 12:30N 49°53' W 005°15'612.6
2018-May-20 12:00N 49°52' W 005°24'713.0
2018-May-20 11:30N 49°52' W 005°35'713.5
2018-May-20 11:00N 49°53' W 005°45'713.5
2018-May-20 10:30N 49°54' W 005°55'612.2
2018-May-20 10:00N 49°60' W 005°59'713.5
2018-May-20 09:30N 50°07' W 005°60'713.0
2018-May-20 09:00N 50°13' W 005°60'612.3
2018-May-20 08:30N 50°19' W 005°60'611.4
2018-May-20 08:00N 50°24' W 005°55'611.8
2018-May-20 07:30N 50°28' W 005°47'611.9
2018-May-20 07:00N 50°32' W 005°41'611.7
2018-May-20 06:30N 50°35' W 005°34'611.8
2018-May-20 06:00N 50°39' W 005°26'612.0
2018-May-20 05:30N 50°43' W 005°19'612.3
2018-May-20 05:00N 50°47' W 005°12'612.6
2018-May-20 04:30N 50°51' W 005°04'612.9
2018-May-20 04:00N 50°55' W 004°56'713.1
2018-May-20 03:30N 50°59' W 004°48'713.6
2018-May-20 03:00N 51°04' W 004°40'714.1
2018-May-20 02:30N 51°08' W 004°32'714.1
2018-May-20 02:00N 51°13' W 004°23'715.1
2018-May-20 01:30N 51°17' W 004°12'815.9
2018-May-20 01:00N 51°18' W 003°60'816.9
2018-May-20 00:31N 51°19' W 003°47'816.6
2018-May-20 00:00N 51°20' W 003°33'816.6
2018-May-19 23:31N 51°21' W 003°20'713.5
2018-May-19 23:00N 51°23' W 003°10'713.4
2018-May-19 22:30N 51°28' W 003°02'510.0
2018-May-19 22:00N 51°32' W 002°59'1 2.1
2018-May-19 21:29N 51°33' W 002°58'0 0.0
2018-May-19 20:59N 51°33' W 002°58'0 0.0
2018-May-19 20:29N 51°33' W 002°58'0 0.0
2018-May-19 19:59N 51°33' W 002°58'0 0.0
2018-May-19 19:29N 51°33' W 002°58'0 0.0
2018-May-19 18:59N 51°33' W 002°58'0 0.0
2018-May-19 18:29N 51°33' W 002°58'0 0.0
2018-May-19 17:59N 51°33' W 002°58'0 0.0
2018-May-19 17:29N 51°33' W 002°58'0 0.0
2018-May-19 16:59N 51°33' W 002°58'0 0.0
2018-May-19 16:29N 51°33' W 002°58'0 0.0
2018-May-19 15:59N 51°33' W 002°58'0 0.0
2018-May-19 15:29N 51°33' W 002°58'0 0.0
2018-May-19 14:59N 51°33' W 002°58'0 0.0
2018-May-19 14:29N 51°33' W 002°58'0 0.0
2018-May-19 13:59N 51°33' W 002°58'0 0.0
2018-May-19 13:29N 51°33' W 002°58'0 0.0
2018-May-19 12:59N 51°33' W 002°58'0 0.0
2018-May-19 12:29N 51°33' W 002°58'0 0.0
2018-May-19 11:59N 51°33' W 002°58'0 0.0
2018-May-19 11:29N 51°33' W 002°58'0 0.0
2018-May-19 10:59N 51°33' W 002°58'0 0.0
2018-May-19 10:29N 51°33' W 002°58'0 0.0
2018-May-19 09:59N 51°33' W 002°58'0 0.0
2018-May-19 09:29N 51°33' W 002°58'0 0.0
2018-May-19 08:59N 51°33' W 002°58'0 0.0
2018-May-19 08:29N 51°33' W 002°58'0 0.0
2018-May-19 07:59N 51°33' W 002°58'0 0.0
2018-May-19 07:29N 51°33' W 002°58'0 0.0
2018-May-19 06:59N 51°33' W 002°58'0 0.0
2018-May-19 06:29N 51°33' W 002°58'0 0.0
2018-May-19 05:59N 51°33' W 002°58'0 0.0
2018-May-19 05:29N 51°33' W 002°58'0 0.0
2018-May-19 04:59N 51°33' W 002°58'0 0.0
2018-May-19 04:29N 51°33' W 002°58'0 0.0
2018-May-19 03:59N 51°33' W 002°58'0 0.0
2018-May-19 03:29N 51°33' W 002°58'0 0.0
2018-May-19 02:59N 51°33' W 002°58'0 0.0
2018-May-19 02:29N 51°33' W 002°58'0 0.0
2018-May-19 01:59N 51°33' W 002°58'0 0.0
2018-May-19 01:29N 51°33' W 002°58'0 0.0
2018-May-19 00:59N 51°33' W 002°58'0 0.0
2018-May-19 00:29N 51°33' W 002°58'0 0.0
2018-May-18 23:59N 51°33' W 002°58'0 0.0
2018-May-18 23:29N 51°33' W 002°58'0 0.0
2018-May-18 22:59N 51°33' W 002°58'0 0.0
2018-May-18 22:29N 51°33' W 002°58'0 0.0
2018-May-18 21:59N 51°33' W 002°58'0 0.0
2018-May-18 21:29N 51°33' W 002°58'0 0.0
2018-May-18 20:59N 51°33' W 002°58'0 0.0
2018-May-18 20:29N 51°33' W 002°58'0 0.0
2018-May-18 19:59N 51°33' W 002°58'0 0.0
2018-May-18 19:29N 51°33' W 002°58'0 0.0
2018-May-18 18:59N 51°33' W 002°58'0 0.0
2018-May-18 18:29N 51°33' W 002°58'0 0.0
2018-May-18 17:59N 51°33' W 002°58'0 0.0
2018-May-18 17:29N 51°33' W 002°58'0 0.0
2018-May-18 16:59N 51°33' W 002°58'0 0.0
2018-May-18 16:29N 51°33' W 002°58'0 0.0
2018-May-18 15:59N 51°33' W 002°58'0 0.0
2018-May-18 15:29N 51°33' W 002°58'0 0.0
2018-May-18 14:59N 51°33' W 002°58'0 0.0
2018-May-18 14:29N 51°33' W 002°58'0 0.0
2018-May-18 13:59N 51°33' W 002°58'0 0.0
2018-May-18 13:29N 51°33' W 002°58'0 0.0
2018-May-18 12:59N 51°33' W 002°58'0 0.0
2018-May-18 12:29N 51°33' W 002°58'0 0.0
2018-May-18 11:59N 51°33' W 002°58'0 0.0
2018-May-18 11:29N 51°33' W 002°58'0 0.0
2018-May-18 10:59N 51°33' W 002°58'0 0.0
2018-May-18 10:29N 51°33' W 002°58'0 0.0
2018-May-18 09:59N 51°33' W 002°58'0 0.0
2018-May-18 09:29N 51°33' W 002°58'0 0.0
2018-May-18 08:59N 51°33' W 002°58'0 0.0
2018-May-18 08:29N 51°33' W 002°58'0 0.0
2018-May-18 07:59N 51°33' W 002°58'0 0.0
2018-May-18 07:29N 51°33' W 002°58'0 0.0
2018-May-18 06:59N 51°33' W 002°58'0 0.0
2018-May-18 06:29N 51°33' W 002°58'0 0.0
2018-May-18 05:59N 51°33' W 002°58'0 0.0
2018-May-18 05:29N 51°33' W 002°58'0 0.0
2018-May-18 04:59N 51°33' W 002°58'0 0.0
2018-May-18 04:28N 51°33' W 002°58'0 0.0
2018-May-18 03:58N 51°33' W 002°58'0 0.0
2018-May-18 03:28N 51°33' W 002°58'0 0.0
2018-May-18 02:58N 51°33' W 002°58'0 0.0
2018-May-18 02:28N 51°33' W 002°58'0 0.0
2018-May-18 01:58N 51°33' W 002°58'0 0.0
2018-May-18 01:28N 51°33' W 002°58'0 0.0
2018-May-18 00:58N 51°33' W 002°58'0 0.0
2018-May-18 00:28N 51°33' W 002°58'0 0.0
2018-May-17 23:58N 51°33' W 002°58'0 0.0
2018-May-17 23:28N 51°33' W 002°58'0 0.0
2018-May-17 22:58N 51°33' W 002°58'0 0.0
2018-May-17 22:25N 51°33' W 002°58'0 0.0
2018-May-17 21:58N 51°33' W 002°58'0 0.0
2018-May-17 21:28N 51°33' W 002°58'0 0.0
2018-May-17 20:58N 51°33' W 002°58'0 0.0
2018-May-17 20:28N 51°33' W 002°58'0 0.0
2018-May-17 19:58N 51°33' W 002°58'0 0.0
2018-May-17 19:28N 51°33' W 002°58'0 0.0
2018-May-17 18:58N 51°33' W 002°58'0 0.0
2018-May-17 18:28N 51°33' W 002°58'0 0.0
2018-May-17 17:58N 51°33' W 002°58'0 0.0
2018-May-17 17:28N 51°33' W 002°58'0 0.0
2018-May-17 16:58N 51°33' W 002°58'0 0.0
2018-May-17 16:28N 51°33' W 002°58'0 0.0
2018-May-17 15:58N 51°33' W 002°58'0 0.0
2018-May-17 15:28N 51°33' W 002°58'0 0.0
2018-May-17 14:58N 51°33' W 002°58'0 0.0
2018-May-17 14:28N 51°33' W 002°58'0 0.0
2018-May-17 13:58N 51°33' W 002°58'0 0.0
2018-May-17 13:28N 51°33' W 002°58'0 0.0
2018-May-17 12:58N 51°33' W 002°58'0 0.0
2018-May-17 12:28N 51°33' W 002°58'0 0.0
2018-May-17 11:58N 51°33' W 002°58'0 0.0
2018-May-17 11:28N 51°33' W 002°58'0 0.0
2018-May-17 10:58N 51°33' W 002°58'0 0.0
2018-May-17 10:28N 51°33' W 002°58'0 0.0
2018-May-17 09:49N 51°33' W 002°58'0 0.0
2018-May-17 09:28N 51°33' W 002°58'0 0.0
2018-May-17 08:58N 51°33' W 002°58'0 0.0
2018-May-17 08:28N 51°33' W 002°58'0 0.0
2018-May-17 07:58N 51°33' W 002°58'0 0.0
2018-May-17 07:28N 51°33' W 002°58'0 0.0
2018-May-17 06:55N 51°33' W 002°58'0 0.0
2018-May-17 06:28N 51°33' W 002°58'0 0.0
2018-May-17 05:55N 51°33' W 002°58'0 0.0
2018-May-17 05:25N 51°33' W 002°58'0 0.0
2018-May-17 05:00N 51°33' W 002°58'0 0.0
2018-May-17 04:26N 51°33' W 002°58'0 0.0
2018-May-17 03:58N 51°33' W 002°58'0 0.0
2018-May-17 03:23N 51°33' W 002°58'0 0.0
2018-May-17 02:55N 51°33' W 002°58'0 0.0
2018-May-17 02:22N 51°33' W 002°58'0 0.0
2018-May-17 01:58N 51°33' W 002°58'0 0.0
2018-May-17 01:25N 51°33' W 002°58'0 0.0
2018-May-17 00:56N 51°33' W 002°58'0 0.0
2018-May-17 00:26N 51°33' W 002°58'0 0.0
2018-May-16 23:55N 51°33' W 002°58'0 0.0
2018-May-16 23:19N 51°33' W 002°58'0 0.0
2018-May-16 22:55N 51°33' W 002°58'0 0.0
2018-May-16 22:19N 51°33' W 002°58'0 0.0
2018-May-16 21:58N 51°33' W 002°58'0 0.0
2018-May-16 21:26N 51°33' W 002°58'0 0.0
2018-May-16 20:58N 51°33' W 002°58'0 0.0
2018-May-16 20:29N 51°33' W 002°58'0 0.0
2018-May-16 19:59N 51°33' W 002°58'0 0.0
2018-May-16 19:28N 51°33' W 002°58'0 0.0
2018-May-16 18:55N 51°33' W 002°58'0 0.0
2018-May-16 18:29N 51°33' W 002°58'0 0.0
2018-May-16 17:55N 51°33' W 002°58'0 0.0
2018-May-16 17:25N 51°33' W 002°58'0 0.0
2018-May-16 16:55N 51°33' W 002°58'0 0.0
2018-May-16 16:26N 51°33' W 002°58'0 0.0
2018-May-16 15:55N 51°33' W 002°58'0 0.1
2018-May-16 15:25N 51°33' W 002°58'0 0.0
2018-May-16 14:58N 51°33' W 002°58'0 0.0
2018-May-16 14:28N 51°33' W 002°58'0 0.0
2018-May-16 13:58N 51°33' W 002°58'0 0.0
2018-May-16 13:25N 51°33' W 002°58'0 0.0
2018-May-16 12:56N 51°33' W 002°58'0 0.0
2018-May-16 12:30N 51°33' W 002°58'0 0.0
2018-May-16 12:00N 51°33' W 002°58'0 0.0
2018-May-16 11:30N 51°33' W 002°58'0 0.0
2018-May-16 10:57N 51°33' W 002°58'0 0.0
2018-May-16 10:27N 51°33' W 002°58'0 0.0
2018-May-16 09:57N 51°33' W 002°58'0 0.0
2018-May-16 09:28N 51°33' W 002°58'0 0.0
2018-May-16 08:58N 51°33' W 002°58'0 0.0
2018-May-16 08:28N 51°33' W 002°58'0 0.0
2018-May-16 07:58N 51°33' W 002°58'0 0.0
2018-May-16 07:28N 51°33' W 002°58'0 0.0
2018-May-16 06:58N 51°33' W 002°58'0 0.0
2018-May-16 06:28N 51°33' W 002°58'0 0.0
2018-May-16 05:58N 51°33' W 002°58'0 0.0
2018-May-16 05:28N 51°33' W 002°58'0 0.0
2018-May-16 04:58N 51°33' W 002°58'0 0.0
2018-May-16 04:28N 51°33' W 002°58'0 0.0
2018-May-16 03:58N 51°33' W 002°58'0 0.0
2018-May-16 03:28N 51°33' W 002°58'0 0.0
2018-May-16 03:00N 51°33' W 002°58'0 0.0
2018-May-16 02:30N 51°33' W 002°58'0 0.0
2018-May-16 02:00N 51°33' W 002°58'0 0.0
2018-May-16 01:30N 51°33' W 002°58'0 0.0
2018-May-16 01:00N 51°33' W 002°58'0 0.0
2018-May-16 00:30N 51°33' W 002°58'0 0.0
2018-May-16 00:00N 51°33' W 002°58'0 0.0
2018-May-15 23:30N 51°33' W 002°58'0 0.0
2018-May-15 23:00N 51°33' W 002°58'0 0.0
2018-May-15 22:30N 51°33' W 002°58'0 0.0
2018-May-15 22:00N 51°33' W 002°58'0 0.0
2018-May-15 21:30N 51°33' W 002°58'0 0.0
2018-May-15 21:00N 51°33' W 002°58'0 0.0
2018-May-15 20:30N 51°33' W 002°58'0 0.0
2018-May-15 20:00N 51°33' W 002°58'0 0.0
2018-May-15 19:30N 51°33' W 002°58'0 0.0
2018-May-15 19:00N 51°33' W 002°58'0 0.0
2018-May-15 18:30N 51°33' W 002°58'0 0.0
2018-May-15 18:00N 51°33' W 002°58'0 0.0
2018-May-15 17:31N 51°33' W 002°58'0 0.0
2018-May-15 16:59N 51°33' W 002°58'0 0.0
2018-May-15 16:20N 51°33' W 002°58'0 0.0
2018-May-15 15:50N 51°33' W 002°58'0 0.0
2018-May-15 15:30N 51°33' W 002°58'0 0.0
2018-May-15 14:58N 51°33' W 002°58'0 0.0
2018-May-15 14:29N 51°33' W 002°58'0 0.0
2018-May-15 14:01N 51°33' W 002°58'0 0.0
2018-May-15 13:30N 51°33' W 002°58'0 0.0
2018-May-15 12:57N 51°33' W 002°58'0 0.0
2018-May-15 12:21N 51°33' W 002°58'0 0.0
2018-May-15 12:00N 51°33' W 002°58'0 0.0
2018-May-15 11:30N 51°33' W 002°58'0 0.0
2018-May-15 11:00N 51°33' W 002°58'0 0.0
2018-May-15 10:27N 51°33' W 002°58'0 0.0
2018-May-15 09:47N 51°33' W 002°58'0 0.0
2018-May-15 09:19N 51°33' W 002°58'0 0.0
2018-May-15 08:55N 51°33' W 002°58'0 0.0
2018-May-15 08:28N 51°33' W 002°58'0 0.0
2018-May-15 07:58N 51°33' W 002°58'0 0.0
2018-May-15 07:28N 51°33' W 002°58'0 0.0
2018-May-15 06:58N 51°33' W 002°58'0 0.0
2018-May-15 06:28N 51°33' W 002°58'0 0.0
2018-May-15 05:58N 51°33' W 002°58'0 0.0
2018-May-15 05:28N 51°33' W 002°58'0 0.0
2018-May-15 04:58N 51°33' W 002°58'0 0.0
2018-May-15 04:22N 51°33' W 002°58'0 0.0
2018-May-15 03:58N 51°33' W 002°58'0 0.0
2018-May-15 03:30N 51°33' W 002°58'0 0.0
2018-May-15 03:00N 51°33' W 002°58'0 0.0
2018-May-15 02:30N 51°33' W 002°58'0 0.0
2018-May-15 02:00N 51°33' W 002°58'0 0.0
2018-May-15 01:30N 51°33' W 002°58'0 0.0
2018-May-15 01:00N 51°33' W 002°58'0 0.0
2018-May-15 00:30N 51°33' W 002°58'0 0.0
2018-May-15 00:00N 51°33' W 002°58'0 0.0
2018-May-14 23:30N 51°33' W 002°58'0 0.0
2018-May-14 22:57N 51°33' W 002°58'0 0.0
2018-May-14 22:30N 51°33' W 002°58'0 0.0
2018-May-14 22:00N 51°33' W 002°58'0 0.0
2018-May-14 21:30N 51°33' W 002°58'  
Track history (hours):
 
Tides and Currents Weather Stations Pressure Air Temp Water Temp Dewpoint Dewpoint Depression Visibility Wind Speed Wind Dir Waves Ship Positions

M V Global Arrow

Last reported at 2018-May-24 21:28 UTC. Time now 2018-May-24 21:43 UTC.
Position N 54°23' E 018°40'.

Length 153 m; draft 6.5 m.

Type: Ship. MMSI: 355420000.

Date/timePositionNaut miles runAvg speedWind from/ knotsBaromVisibWave heightAir tempDewpointWater temp
2018-May-24 21:28N 54°23' E 018°40'0 0.0
2018-May-24 20:58N 54°23' E 018°40'0 0.0
2018-May-24 20:28N 54°23' E 018°40'0 0.0
2018-May-24 19:58N 54°23' E 018°40'0 0.0
2018-May-24 19:28N 54°23' E 018°40'0 0.0
2018-May-24 18:58N 54°23' E 018°40'0 0.0
2018-May-24 18:28N 54°23' E 018°40'0 0.0
2018-May-24 17:58N 54°23' E 018°40'0 0.0
2018-May-24 17:25N 54°23' E 018°40'0 0.0
2018-May-24 16:58N 54°23' E 018°40'0 0.0
2018-May-24 16:28N 54°23' E 018°40'0 0.0
2018-May-24 15:58N 54°23' E 018°40'0 0.0
2018-May-24 15:28N 54°23' E 018°40'0 0.0
2018-May-24 14:58N 54°23' E 018°40'0 0.0
2018-May-24 14:25N 54°23' E 018°40'0 0.0
2018-May-24 13:58N 54°23' E 018°40'0 0.0
2018-May-24 13:28N 54°23' E 018°40'5 1.2
2018-May-24 09:00N 54°28' E 018°42'2 5.0
2018-May-24 08:30N 54°30' E 018°44'612.5
2018-May-24 08:00N 54°35' E 018°52'713.4
2018-May-24 07:30N 54°41' E 018°56'612.4
2018-May-24 07:00N 54°47' E 018°55'713.4
2018-May-24 06:30N 54°51' E 018°46'713.7
2018-May-24 06:00N 54°55' E 018°36'713.2
2018-May-24 05:30N 54°56' E 018°25'713.1
2018-May-24 05:00N 54°56' E 018°14'713.2
2018-May-24 04:31N 54°56' E 018°02'713.2
2018-May-24 04:00N 54°56' E 017°50'613.0
2018-May-24 03:30N 54°55' E 017°39'713.2
2018-May-24 03:00N 54°54' E 017°28'612.8
2018-May-24 02:30N 54°53' E 017°17'612.7
2018-May-24 02:00N 54°51' E 017°07'712.7
2018-May-24 01:29N 54°49' E 016°55'713.1
2018-May-24 00:56N 54°48' E 016°43'813.1
2018-May-24 00:21N 54°47' E 016°30'513.2
2018-May-23 23:59N 54°46' E 016°22'613.0
2018-May-23 23:30N 54°45' E 016°11'712.9
2018-May-23 22:58N 54°43' E 015°59'612.9
2018-May-23 22:30N 54°43' E 015°49'612.9
2018-May-23 22:00N 54°42' E 015°38'812.8
2018-May-23 21:25N 54°41' E 015°25'512.8
2018-May-23 21:00N 54°41' E 015°16'612.6
2018-May-23 20:30N 54°39' E 015°05'612.6
2018-May-23 20:00N 54°38' E 014°55'612.6
2018-May-23 19:31N 54°37' E 014°44'612.5
2018-May-23 19:01N 54°36' E 014°33'612.4
2018-May-23 18:31N 54°36' E 014°23'712.6
2018-May-23 17:56N 54°38' E 014°11'812.9
2018-May-23 17:20N 54°40' E 013°58'1112.9
2018-May-23 16:30N 54°43' E 013°40'813.0
2018-May-23 15:52N 54°44' E 013°26'613.2
2018-May-23 15:25N 54°45' E 013°15'713.3
2018-May-23 14:56N 54°45' E 013°04'916.0
2018-May-23 14:21N 54°44' E 012°48'1911.7
2018-May-23 12:45N 54°35' E 012°20'312.8
2018-May-23 12:30N 54°32' E 012°17'712.7
2018-May-23 11:59N 54°26' E 012°12'612.2
2018-May-23 11:30N 54°25' E 012°02'612.6
2018-May-23 11:00N 54°25' E 011°51'712.0
2018-May-23 10:26N 54°27' E 011°40'512.8
2018-May-23 10:01N 54°29' E 011°31'713.1
2018-May-23 09:31N 54°32' E 011°21'612.8
2018-May-23 09:01N 54°34' E 011°11'713.2
2018-May-23 08:31N 54°35' E 010°60'713.2
2018-May-23 08:01N 54°34' E 010°48'713.1
2018-May-23 07:31N 54°33' E 010°37'712.9
2018-May-23 07:00N 54°31' E 010°26'611.8
2018-May-23 06:29N 54°29' E 010°17'5 9.9
2018-May-23 06:01N 54°25' E 010°13'4 7.3
2018-May-23 05:31N 54°22' E 010°09'0 0.4
2018-May-23 05:01N 54°22' E 010°08'1 1.5
2018-May-23 04:30N 54°22' E 010°07'3 6.5
2018-May-23 04:00N 54°22' E 010°02'4 7.0
2018-May-23 03:30N 54°20' E 009°56'4 7.6
2018-May-23 03:01N 54°22' E 009°50'4 8.1
2018-May-23 02:30N 54°20' E 009°44'3 6.8
2018-May-23 02:00N 54°17' E 009°40'3 5.3
2018-May-23 01:30N 54°15' E 009°37'1 3.0
2018-May-23 01:01N 54°14' E 009°36'3 6.2
2018-May-23 00:30N 54°12' E 009°32'4 7.2
2018-May-23 00:00N 54°10' E 009°27'4 8.1
2018-May-22 23:31N 54°08' E 009°21'4 8.2
2018-May-22 23:00N 54°04' E 009°19'4 7.6
2018-May-22 22:31N 54°01' E 009°18'4 7.9
2018-May-22 22:01N 53°57' E 009°14'4 7.4
2018-May-22 21:30N 53°54' E 009°10'1 2.5
2018-May-22 21:00N 53°54' E 009°09'0 0.0
2018-May-22 20:31N 53°54' E 009°09'1 2.8
2018-May-22 20:00N 53°53' E 009°06'1 1.2
2018-May-22 19:29N 53°53' E 009°05'0 0.2
2018-May-22 18:56N 53°53' E 009°06'0 0.1
2018-May-22 18:30N 53°53' E 009°06'0 0.0
2018-May-22 17:59N 53°53' E 009°06'0 0.0
2018-May-22 17:29N 53°53' E 009°06'0 0.0
2018-May-22 16:56N 53°53' E 009°06'0 0.0
2018-May-22 16:29N 53°53' E 009°06'0 0.0
2018-May-22 15:56N 53°53' E 009°06'0 0.0
2018-May-22 15:21N 53°53' E 009°06'0 0.1
2018-May-22 15:00N 53°53' E 009°06'3 5.7
2018-May-22 14:31N 53°51' E 009°01'612.8
2018-May-22 14:00N 53°50' E 008°51'510.4
2018-May-22 13:30N 53°53' E 008°43'611.7
2018-May-22 13:00N 53°57' E 008°37'613.1
2018-May-22 12:31N 53°59' E 008°26'713.2
2018-May-22 11:59N 53°60' E 008°15'611.0
2018-May-22 11:28N 53°59' E 008°05'612.9
2018-May-22 11:00N 53°58' E 007°55'612.6
2018-May-22 10:30N 53°56' E 007°44'612.3
2018-May-22 10:00N 53°55' E 007°34'612.0
2018-May-22 09:30N 53°54' E 007°24'612.0
2018-May-22 09:00N 53°52' E 007°14'611.8
2018-May-22 08:30N 53°51' E 007°05'611.7
2018-May-22 08:00N 53°50' E 006°55'611.7
2018-May-22 07:30N 53°48' E 006°45'611.8
2018-May-22 07:00N 53°47' E 006°36'611.8
2018-May-22 06:30N 53°45' E 006°26'611.9
2018-May-22 06:00N 53°43' E 006°16'612.1
2018-May-22 05:30N 53°41' E 006°07'612.2
2018-May-22 05:00N 53°39' E 005°57'612.2
2018-May-22 04:30N 53°38' E 005°47'612.3
2018-May-22 04:00N 53°36' E 005°37'612.4
2018-May-22 03:30N 53°34' E 005°28'612.4
2018-May-22 03:00N 53°32' E 005°18'612.6
2018-May-22 02:30N 53°30' E 005°08'612.7
2018-May-22 02:00N 53°27' E 004°58'713.2
2018-May-22 01:30N 53°25' E 004°47'612.7
2018-May-22 01:00N 53°20' E 004°41'713.6
2018-May-22 00:30N 53°14' E 004°35'713.8
2018-May-22 00:00N 53°08' E 004°30'713.9
2018-May-21 23:31N 53°02' E 004°24'713.4
2018-May-21 23:01N 52°56' E 004°19'713.4
2018-May-21 22:31N 52°50' E 004°13'714.1
2018-May-21 22:00N 52°45' E 004°06'713.7
2018-May-21 21:31N 52°40' E 003°59'713.7
2018-May-21 21:00N 52°34' E 003°52'713.7
2018-May-21 20:30N 52°29' E 003°44'713.9
2018-May-21 20:00N 52°25' E 003°35'713.9
2018-May-21 19:30N 52°20' E 003°27'713.9
2018-May-21 19:00N 52°15' E 003°19'714.0
2018-May-21 18:29N 52°10' E 003°10'714.1
2018-May-21 18:00N 52°05' E 003°03'713.9
2018-May-21 17:30N 51°60' E 002°55'813.8
2018-May-21 16:56N 51°53' E 002°48'613.5
2018-May-21 16:28N 51°48' E 002°42'613.3
2018-May-21 16:00N 51°44' E 002°35'713.0
2018-May-21 15:30N 51°39' E 002°28'612.8
2018-May-21 15:00N 51°34' E 002°22'612.2
2018-May-21 14:30N 51°29' E 002°16'611.6
2018-May-21 14:00N 51°25' E 002°10'611.3
2018-May-21 13:30N 51°19' E 002°08'510.9
2018-May-21 13:00N 51°14' E 002°05'510.6
2018-May-21 12:30N 51°11' E 001°57'510.4
2018-May-21 12:00N 51°08' E 001°50'510.0
2018-May-21 11:30N 51°05' E 001°44'5 9.7
2018-May-21 11:00N 51°02' E 001°39'5 9.8
2018-May-21 10:30N 50°58' E 001°34'510.2
2018-May-21 10:00N 50°54' E 001°28'510.9
2018-May-21 09:30N 50°49' E 001°24'611.4
2018-May-21 09:00N 50°44' E 001°21'611.4
2018-May-21 08:30N 50°39' E 001°17'612.0
2018-May-21 08:00N 50°35' E 001°10'612.1
2018-May-21 07:30N 50°31' E 001°02'1811.8
2018-May-21 05:58N 50°25' E 000°35'611.6
2018-May-21 05:27N 50°23' E 000°26'511.6
2018-May-21 05:00N 50°22' E 000°18'611.7
2018-May-21 04:30N 50°21' E 000°09'612.0
2018-May-21 04:00N 50°19' E 000°00'612.2
2018-May-21 03:30N 50°17' W 000°09'612.6
2018-May-21 03:00N 50°16' W 000°18'713.1
2018-May-21 02:30N 50°14' W 000°28'713.7
2018-May-21 02:00N 50°12' W 000°39'714.5
2018-May-21 01:30N 50°11' W 000°49'815.2
2018-May-21 01:00N 50°09' W 001°01'815.7
2018-May-21 00:31N 50°07' W 001°13'815.8
2018-May-21 00:00N 50°04' W 001°24'816.2
2018-May-20 23:30N 50°02' W 001°37'816.3
2018-May-20 23:00N 49°60' W 001°49'816.2
2018-May-20 22:30N 49°58' W 002°01'815.4
2018-May-20 22:00N 49°56' W 002°13'714.4
2018-May-20 21:30N 49°55' W 002°24'713.9
2018-May-20 21:00N 49°53' W 002°34'713.4
2018-May-20 20:30N 49°52' W 002°44'713.0
2018-May-20 20:00N 49°51' W 002°54'612.7
2018-May-20 19:30N 49°51' W 003°04'612.5
2018-May-20 19:00N 49°51' W 003°14'612.1
2018-May-20 18:30N 49°51' W 003°23'611.8
2018-May-20 18:00N 49°51' W 003°33'611.6
2018-May-20 17:29N 49°52' W 003°42'611.6
2018-May-20 17:00N 49°52' W 003°51'811.6
2018-May-20 16:21N 49°52' W 004°02'411.7
2018-May-20 16:00N 49°52' W 004°08'611.8
2018-May-20 15:30N 49°52' W 004°18'612.0
2018-May-20 15:00N 49°52' W 004°27'612.2
2018-May-20 14:30N 49°53' W 004°36'712.3
2018-May-20 13:57N 49°53' W 004°47'612.4
2018-May-20 13:28N 49°53' W 004°56'612.3
2018-May-20 13:00N 49°53' W 005°05'612.4
2018-May-20 12:30N 49°53' W 005°15'612.6
2018-May-20 12:00N 49°52' W 005°24'713.0
2018-May-20 11:30N 49°52' W 005°35'713.5
2018-May-20 11:00N 49°53' W 005°45'713.5
2018-May-20 10:30N 49°54' W 005°55'612.2
2018-May-20 10:00N 49°60' W 005°59'713.5
2018-May-20 09:30N 50°07' W 005°60'713.0
2018-May-20 09:00N 50°13' W 005°60'612.3
2018-May-20 08:30N 50°19' W 005°60'611.4
2018-May-20 08:00N 50°24' W 005°55'611.8
2018-May-20 07:30N 50°28' W 005°47'611.9
2018-May-20 07:00N 50°32' W 005°41'611.7
2018-May-20 06:30N 50°35' W 005°34'611.8
2018-May-20 06:00N 50°39' W 005°26'612.0
2018-May-20 05:30N 50°43' W 005°19'612.3
2018-May-20 05:00N 50°47' W 005°12'612.6
2018-May-20 04:30N 50°51' W 005°04'612.9
2018-May-20 04:00N 50°55' W 004°56'713.1
2018-May-20 03:30N 50°59' W 004°48'713.6
2018-May-20 03:00N 51°04' W 004°40'714.1
2018-May-20 02:30N 51°08' W 004°32'714.1
2018-May-20 02:00N 51°13' W 004°23'715.1
2018-May-20 01:30N 51°17' W 004°12'815.9
2018-May-20 01:00N 51°18' W 003°60'816.9
2018-May-20 00:31N 51°19' W 003°47'816.6
2018-May-20 00:00N 51°20' W 003°33'816.6
2018-May-19 23:31N 51°21' W 003°20'713.5
2018-May-19 23:00N 51°23' W 003°10'713.4
2018-May-19 22:30N 51°28' W 003°02'510.0
2018-May-19 22:00N 51°32' W 002°59'1 2.1
2018-May-19 21:29N 51°33' W 002°58'0 0.0
2018-May-19 20:59N 51°33' W 002°58'0 0.0
2018-May-19 20:29N 51°33' W 002°58'0 0.0
2018-May-19 19:59N 51°33' W 002°58'0 0.0
2018-May-19 19:29N 51°33' W 002°58'0 0.0
2018-May-19 18:59N 51°33' W 002°58'0 0.0
2018-May-19 18:29N 51°33' W 002°58'0 0.0
2018-May-19 17:59N 51°33' W 002°58'0 0.0
2018-May-19 17:29N 51°33' W 002°58'0 0.0
2018-May-19 16:59N 51°33' W 002°58'0 0.0
2018-May-19 16:29N 51°33' W 002°58'0 0.0
2018-May-19 15:59N 51°33' W 002°58'0 0.0
2018-May-19 15:29N 51°33' W 002°58'0 0.0
2018-May-19 14:59N 51°33' W 002°58'0 0.0
2018-May-19 14:29N 51°33' W 002°58'0 0.0
2018-May-19 13:59N 51°33' W 002°58'0 0.0
2018-May-19 13:29N 51°33' W 002°58'0 0.0
2018-May-19 12:59N 51°33' W 002°58'0 0.0
2018-May-19 12:29N 51°33' W 002°58'0 0.0
2018-May-19 11:59N 51°33' W 002°58'0 0.0
2018-May-19 11:29N 51°33' W 002°58'0 0.0
2018-May-19 10:59N 51°33' W 002°58'0 0.0
2018-May-19 10:29N 51°33' W 002°58'0 0.0
2018-May-19 09:59N 51°33' W 002°58'0 0.0
2018-May-19 09:29N 51°33' W 002°58'0 0.0
2018-May-19 08:59N 51°33' W 002°58'0 0.0
2018-May-19 08:29N 51°33' W 002°58'0 0.0
2018-May-19 07:59N 51°33' W 002°58'0 0.0
2018-May-19 07:29N 51°33' W 002°58'0 0.0
2018-May-19 06:59N 51°33' W 002°58'0 0.0
2018-May-19 06:29N 51°33' W 002°58'0 0.0
2018-May-19 05:59N 51°33' W 002°58'0 0.0
2018-May-19 05:29N 51°33' W 002°58'0 0.0
2018-May-19 04:59N 51°33' W 002°58'0 0.0
2018-May-19 04:29N 51°33' W 002°58'0 0.0
2018-May-19 03:59N 51°33' W 002°58'0 0.0
2018-May-19 03:29N 51°33' W 002°58'0 0.0
2018-May-19 02:59N 51°33' W 002°58'0 0.0
2018-May-19 02:29N 51°33' W 002°58'0 0.0
2018-May-19 01:59N 51°33' W 002°58'0 0.0
2018-May-19 01:29N 51°33' W 002°58'0 0.0
2018-May-19 00:59N 51°33' W 002°58'0 0.0
2018-May-19 00:29N 51°33' W 002°58'0 0.0
2018-May-18 23:59N 51°33' W 002°58'0 0.0
2018-May-18 23:29N 51°33' W 002°58'0 0.0
2018-May-18 22:59N 51°33' W 002°58'0 0.0
2018-May-18 22:29N 51°33' W 002°58'0 0.0
2018-May-18 21:59N 51°33' W 002°58'0 0.0
2018-May-18 21:29N 51°33' W 002°58'0 0.0
2018-May-18 20:59N 51°33' W 002°58'0 0.0
2018-May-18 20:29N 51°33' W 002°58'0 0.0
2018-May-18 19:59N 51°33' W 002°58'0 0.0
2018-May-18 19:29N 51°33' W 002°58'0 0.0
2018-May-18 18:59N 51°33' W 002°58'0 0.0
2018-May-18 18:29N 51°33' W 002°58'0 0.0
2018-May-18 17:59N 51°33' W 002°58'0 0.0
2018-May-18 17:29N 51°33' W 002°58'0 0.0
2018-May-18 16:59N 51°33' W 002°58'0 0.0
2018-May-18 16:29N 51°33' W 002°58'0 0.0
2018-May-18 15:59N 51°33' W 002°58'0 0.0
2018-May-18 15:29N 51°33' W 002°58'0 0.0
2018-May-18 14:59N 51°33' W 002°58'0 0.0
2018-May-18 14:29N 51°33' W 002°58'0 0.0
2018-May-18 13:59N 51°33' W 002°58'0 0.0
2018-May-18 13:29N 51°33' W 002°58'0 0.0
2018-May-18 12:59N 51°33' W 002°58'0 0.0
2018-May-18 12:29N 51°33' W 002°58'0 0.0
2018-May-18 11:59N 51°33' W 002°58'0 0.0
2018-May-18 11:29N 51°33' W 002°58'0 0.0
2018-May-18 10:59N 51°33' W 002°58'0 0.0
2018-May-18 10:29N 51°33' W 002°58'0 0.0
2018-May-18 09:59N 51°33' W 002°58'0 0.0
2018-May-18 09:29N 51°33' W 002°58'0 0.0
2018-May-18 08:59N 51°33' W 002°58'0 0.0
2018-May-18 08:29N 51°33' W 002°58'0 0.0
2018-May-18 07:59N 51°33' W 002°58'0 0.0
2018-May-18 07:29N 51°33' W 002°58'0 0.0
2018-May-18 06:59N 51°33' W 002°58'0 0.0
2018-May-18 06:29N 51°33' W 002°58'0 0.0
2018-May-18 05:59N 51°33' W 002°58'0 0.0
2018-May-18 05:29N 51°33' W 002°58'0 0.0
2018-May-18 04:59N 51°33' W 002°58'0 0.0
2018-May-18 04:28N 51°33' W 002°58'0 0.0
2018-May-18 03:58N 51°33' W 002°58'0 0.0
2018-May-18 03:28N 51°33' W 002°58'0 0.0
2018-May-18 02:58N 51°33' W 002°58'0 0.0
2018-May-18 02:28N 51°33' W 002°58'0 0.0
2018-May-18 01:58N 51°33' W 002°58'0 0.0
2018-May-18 01:28N 51°33' W 002°58'0 0.0
2018-May-18 00:58N 51°33' W 002°58'0 0.0
2018-May-18 00:28N 51°33' W 002°58'0 0.0
2018-May-17 23:58N 51°33' W 002°58'0 0.0
2018-May-17 23:28N 51°33' W 002°58'0 0.0
2018-May-17 22:58N 51°33' W 002°58'0 0.0
2018-May-17 22:25N 51°33' W 002°58'0 0.0
2018-May-17 21:58N 51°33' W 002°58'0 0.0
2018-May-17 21:28N 51°33' W 002°58'0 0.0
2018-May-17 20:58N 51°33' W 002°58'0 0.0
2018-May-17 20:28N 51°33' W 002°58'0 0.0
2018-May-17 19:58N 51°33' W 002°58'0 0.0
2018-May-17 19:28N 51°33' W 002°58'0 0.0
2018-May-17 18:58N 51°33' W 002°58'0 0.0
2018-May-17 18:28N 51°33' W 002°58'0 0.0
2018-May-17 17:58N 51°33' W 002°58'0 0.0
2018-May-17 17:28N 51°33' W 002°58'0 0.0
2018-May-17 16:58N 51°33' W 002°58'0 0.0
2018-May-17 16:28N 51°33' W 002°58'0 0.0
2018-May-17 15:58N 51°33' W 002°58'0 0.0
2018-May-17 15:28N 51°33' W 002°58'0 0.0
2018-May-17 14:58N 51°33' W 002°58'0 0.0
2018-May-17 14:28N 51°33' W 002°58'0 0.0
2018-May-17 13:58N 51°33' W 002°58'0 0.0
2018-May-17 13:28N 51°33' W 002°58'0 0.0
2018-May-17 12:58N 51°33' W 002°58'0 0.0
2018-May-17 12:28N 51°33' W 002°58'0 0.0
2018-May-17 11:58N 51°33' W 002°58'0 0.0
2018-May-17 11:28N 51°33' W 002°58'0 0.0
2018-May-17 10:58N 51°33' W 002°58'0 0.0
2018-May-17 10:28N 51°33' W 002°58'0 0.0
2018-May-17 09:49N 51°33' W 002°58'0 0.0
2018-May-17 09:28N 51°33' W 002°58'0 0.0
2018-May-17 08:58N 51°33' W 002°58'0 0.0
2018-May-17 08:28N 51°33' W 002°58'0 0.0
2018-May-17 07:58N 51°33' W 002°58'0 0.0
2018-May-17 07:28N 51°33' W 002°58'0 0.0
2018-May-17 06:55N 51°33' W 002°58'0 0.0
2018-May-17 06:28N 51°33' W 002°58'0 0.0
2018-May-17 05:55N 51°33' W 002°58'0 0.0
2018-May-17 05:25N 51°33' W 002°58'0 0.0
2018-May-17 05:00N 51°33' W 002°58'0 0.0
2018-May-17 04:26N 51°33' W 002°58'0 0.0
2018-May-17 03:58N 51°33' W 002°58'0 0.0
2018-May-17 03:23N 51°33' W 002°58'0 0.0
2018-May-17 02:55N 51°33' W 002°58'0 0.0
2018-May-17 02:22N 51°33' W 002°58'0 0.0
2018-May-17 01:58N 51°33' W 002°58'0 0.0
2018-May-17 01:25N 51°33' W 002°58'0 0.0
2018-May-17 00:56N 51°33' W 002°58'0 0.0
2018-May-17 00:26N 51°33' W 002°58'0 0.0
2018-May-16 23:55N 51°33' W 002°58'0 0.0
2018-May-16 23:19N 51°33' W 002°58'0 0.0
2018-May-16 22:55N 51°33' W 002°58'0 0.0
2018-May-16 22:19N 51°33' W 002°58'0 0.0
2018-May-16 21:58N 51°33' W 002°58'0 0.0
2018-May-16 21:26N 51°33' W 002°58'0 0.0
2018-May-16 20:58N 51°33' W 002°58'0 0.0
2018-May-16 20:29N 51°33' W 002°58'0 0.0
2018-May-16 19:59N 51°33' W 002°58'0 0.0
2018-May-16 19:28N 51°33' W 002°58'0 0.0
2018-May-16 18:55N 51°33' W 002°58'0 0.0
2018-May-16 18:29N 51°33' W 002°58'0 0.0
2018-May-16 17:55N 51°33' W 002°58'0 0.0
2018-May-16 17:25N 51°33' W 002°58'0 0.0
2018-May-16 16:55N 51°33' W 002°58'0 0.0
2018-May-16 16:26N 51°33' W 002°58'0 0.0
2018-May-16 15:55N 51°33' W 002°58'0 0.1
2018-May-16 15:25N 51°33' W 002°58'0 0.0
2018-May-16 14:58N 51°33' W 002°58'0 0.0
2018-May-16 14:28N 51°33' W 002°58'0 0.0
2018-May-16 13:58N 51°33' W 002°58'0 0.0
2018-May-16 13:25N 51°33' W 002°58'0 0.0
2018-May-16 12:56N 51°33' W 002°58'0 0.0
2018-May-16 12:30N 51°33' W 002°58'0 0.0
2018-May-16 12:00N 51°33' W 002°58'0 0.0
2018-May-16 11:30N 51°33' W 002°58'0 0.0
2018-May-16 10:57N 51°33' W 002°58'0 0.0
2018-May-16 10:27N 51°33' W 002°58'0 0.0
2018-May-16 09:57N 51°33' W 002°58'0 0.0
2018-May-16 09:28N 51°33' W 002°58'0 0.0
2018-May-16 08:58N 51°33' W 002°58'0 0.0
2018-May-16 08:28N 51°33' W 002°58'0 0.0
2018-May-16 07:58N 51°33' W 002°58'0 0.0
2018-May-16 07:28N 51°33' W 002°58'0 0.0
2018-May-16 06:58N 51°33' W 002°58'0 0.0
2018-May-16 06:28N 51°33' W 002°58'0 0.0
2018-May-16 05:58N 51°33' W 002°58'0 0.0
2018-May-16 05:28N 51°33' W 002°58'0 0.0
2018-May-16 04:58N 51°33' W 002°58'0 0.0
2018-May-16 04:28N 51°33' W 002°58'0 0.0
2018-May-16 03:58N 51°33' W 002°58'0 0.0
2018-May-16 03:28N 51°33' W 002°58'0 0.0
2018-May-16 03:00N 51°33' W 002°58'0 0.0
2018-May-16 02:30N 51°33' W 002°58'0 0.0
2018-May-16 02:00N 51°33' W 002°58'0 0.0
2018-May-16 01:30N 51°33' W 002°58'0 0.0
2018-May-16 01:00N 51°33' W 002°58'0 0.0
2018-May-16 00:30N 51°33' W 002°58'0 0.0
2018-May-16 00:00N 51°33' W 002°58'0 0.0
2018-May-15 23:30N 51°33' W 002°58'0 0.0
2018-May-15 23:00N 51°33' W 002°58'0 0.0
2018-May-15 22:30N 51°33' W 002°58'0 0.0
2018-May-15 22:00N 51°33' W 002°58'0 0.0
2018-May-15 21:30N 51°33' W 002°58'0 0.0
2018-May-15 21:00N 51°33' W 002°58'0 0.0
2018-May-15 20:30N 51°33' W 002°58'0 0.0
2018-May-15 20:00N 51°33' W 002°58'0 0.0
2018-May-15 19:30N 51°33' W 002°58'0 0.0
2018-May-15 19:00N 51°33' W 002°58'0 0.0
2018-May-15 18:30N 51°33' W 002°58'0 0.0
2018-May-15 18:00N 51°33' W 002°58'0 0.0
2018-May-15 17:31N 51°33' W 002°58'0 0.0
2018-May-15 16:59N 51°33' W 002°58'0 0.0
2018-May-15 16:20N 51°33' W 002°58'0 0.0
2018-May-15 15:50N 51°33' W 002°58'0 0.0
2018-May-15 15:30N 51°33' W 002°58'0 0.0
2018-May-15 14:58N 51°33' W 002°58'0 0.0
2018-May-15 14:29N 51°33' W 002°58'0 0.0
2018-May-15 14:01N 51°33' W 002°58'0 0.0
2018-May-15 13:30N 51°33' W 002°58'0 0.0
2018-May-15 12:57N 51°33' W 002°58'0 0.0
2018-May-15 12:21N 51°33' W 002°58'0 0.0
2018-May-15 12:00N 51°33' W 002°58'0 0.0
2018-May-15 11:30N 51°33' W 002°58'0 0.0
2018-May-15 11:00N 51°33' W 002°58'0 0.0
2018-May-15 10:27N 51°33' W 002°58'0 0.0
2018-May-15 09:47N 51°33' W 002°58'0 0.0
2018-May-15 09:19N 51°33' W 002°58'0 0.0
2018-May-15 08:55N 51°33' W 002°58'0 0.0
2018-May-15 08:28N 51°33' W 002°58'0 0.0
2018-May-15 07:58N 51°33' W 002°58'0 0.0
2018-May-15 07:28N 51°33' W 002°58'0 0.0
2018-May-15 06:58N 51°33' W 002°58'0 0.0
2018-May-15 06:28N 51°33' W 002°58'0 0.0
2018-May-15 05:58N 51°33' W 002°58'0 0.0
2018-May-15 05:28N 51°33' W 002°58'0 0.0
2018-May-15 04:58N 51°33' W 002°58'0 0.0
2018-May-15 04:22N 51°33' W 002°58'0 0.0
2018-May-15 03:58N 51°33' W 002°58'0 0.0
2018-May-15 03:30N 51°33' W 002°58'0 0.0
2018-May-15 03:00N 51°33' W 002°58'0 0.0
2018-May-15 02:30N 51°33' W 002°58'0 0.0
2018-May-15 02:00N 51°33' W 002°58'0 0.0
2018-May-15 01:30N 51°33' W 002°58'0 0.0
2018-May-15 01:00N 51°33' W 002°58'0 0.0
2018-May-15 00:30N 51°33' W 002°58'0 0.0
2018-May-15 00:00N 51°33' W 002°58'0 0.0
2018-May-14 23:30N 51°33' W 002°58'0 0.0
2018-May-14 22:57N 51°33' W 002°58'0 0.0
2018-May-14 22:30N 51°33' W 002°58'0 0.0
2018-May-14 22:00N 51°33' W 002°58'0 0.0
2018-May-14 21:30N 51°33' W 002°58'  

Dump ship's entire track history